createdAt,value
2022-12-25T00:00:20.964Z,119.93
2022-12-25T00:03:22.936Z,106.22
2022-12-25T00:06:24.716Z,119.25
2022-12-25T00:09:26.412Z,113.78
2022-12-25T00:12:27.936Z,109.47
2022-12-25T00:15:29.471Z,112.75
2022-12-25T00:18:30.924Z,106.72
2022-12-25T00:21:32.374Z,115.72
2022-12-25T00:24:34.097Z,97.88
2022-12-25T00:27:35.695Z,99.63
2022-12-25T00:30:37.860Z,104.72
2022-12-25T00:33:42.196Z,104.30
2022-12-25T00:36:43.650Z,100.22
2022-12-25T00:39:45.136Z,82.63
2022-12-25T00:42:49.003Z,107.32
2022-12-25T00:45:58.638Z,97.47
2022-12-25T00:49:00.244Z,108.35
2022-12-25T00:52:01.799Z,89.13
2022-12-25T00:55:04.235Z,117.35
2022-12-25T00:58:05.702Z,100.32
2022-12-25T01:01:09.298Z,97.60
2022-12-25T01:04:11.469Z,98.15
2022-12-25T01:07:13.159Z,100.78
2022-12-25T01:10:14.672Z,117.95
2022-12-25T01:13:16.152Z,100.13
2022-12-25T01:16:17.853Z,110.22
2022-12-25T01:19:19.373Z,97.15
2022-12-25T01:22:21.002Z,97.88
2022-12-25T01:25:22.471Z,112.97
2022-12-25T01:28:23.924Z,111.75
2022-12-25T01:31:25.463Z,97.45
2022-12-25T01:34:26.933Z,92.03
2022-12-25T01:37:28.418Z,94.32
2022-12-25T01:40:29.947Z,94.47
2022-12-25T01:43:34.199Z,103.78
2022-12-25T01:46:36.172Z,92.53
2022-12-25T01:49:39.263Z,91.60
2022-12-25T01:52:41.397Z,105.28
2022-12-25T01:55:44.228Z,98.20
2022-12-25T01:58:45.964Z,101.15
2022-12-25T02:01:47.852Z,110.30
2022-12-25T02:04:56.250Z,102.83
2022-12-25T02:08:01.898Z,108.00
2022-12-25T02:11:03.413Z,111.55
2022-12-25T02:14:05.428Z,128.05
2022-12-25T02:17:18.987Z,120.53
2022-12-25T02:20:50.331Z,127.93
2022-12-25T02:24:06.003Z,141.88
2022-12-25T02:27:18.090Z,138.70
2022-12-25T02:30:19.791Z,137.48
2022-12-25T02:33:46.114Z,116.78
2022-12-25T02:36:59.674Z,138.30
2022-12-25T02:40:05.870Z,136.77
2022-12-25T02:43:14.107Z,138.15
2022-12-25T02:46:19.153Z,141.73
2022-12-25T02:49:24.463Z,137.80
2022-12-25T02:52:29.713Z,132.02
2022-12-25T02:55:36.368Z,132.85
2022-12-25T02:58:41.359Z,136.73
2022-12-25T03:01:44.696Z,146.90
2022-12-25T03:04:48.545Z,149.50
2022-12-25T03:07:50.768Z,151.18
2022-12-25T03:10:59.895Z,157.43
2022-12-25T03:14:07.629Z,162.63
2022-12-25T03:17:09.259Z,134.70
2022-12-25T03:20:11.367Z,136.90
2022-12-25T03:23:15.746Z,144.20
2022-12-25T03:26:17.233Z,165.45
2022-12-25T03:29:18.792Z,155.52
2022-12-25T03:32:56.845Z,140.38
2022-12-25T03:36:20.632Z,146.10
2022-12-25T03:39:34.732Z,146.82
2022-12-25T03:42:41.306Z,134.50
2022-12-25T03:45:47.948Z,145.00
2022-12-25T03:48:53.192Z,118.13
2022-12-25T03:52:01.162Z,135.90
2022-12-25T03:55:07.792Z,121.18
2022-12-25T03:58:25.122Z,119.60
2022-12-25T04:01:26.751Z,121.90
2022-12-25T04:04:28.760Z,115.50
2022-12-25T04:07:30.291Z,119.15
2022-12-25T04:10:31.899Z,112.70
2022-12-25T04:13:33.418Z,121.55
2022-12-25T04:16:34.921Z,111.43
2022-12-25T04:19:36.442Z,114.07
2022-12-25T04:22:37.948Z,116.53
2022-12-25T04:25:39.375Z,110.07
2022-12-25T04:28:40.956Z,123.45
2022-12-25T04:31:42.542Z,124.57
2022-12-25T04:34:44.086Z,102.95
2022-12-25T04:37:45.522Z,120.35
2022-12-25T04:40:47.262Z,108.22
2022-12-25T04:43:48.753Z,110.43
2022-12-25T04:46:50.344Z,107.82
2022-12-25T04:49:51.931Z,91.00
2022-12-25T04:52:53.629Z,99.03
2022-12-25T04:56:01.384Z,99.53
2022-12-25T04:59:02.955Z,95.03
2022-12-25T05:02:04.640Z,111.45
2022-12-25T05:05:06.542Z,101.43
2022-12-25T05:08:08.013Z,112.72
2022-12-25T05:11:11.879Z,83.18
2022-12-25T05:14:13.310Z,93.10
2022-12-25T05:17:14.860Z,87.55
2022-12-25T05:20:16.396Z,89.13
2022-12-25T05:23:17.861Z,78.75
2022-12-25T05:26:22.194Z,81.25
2022-12-25T05:29:23.754Z,75.35
2022-12-25T05:32:25.241Z,80.60
2022-12-25T05:35:26.760Z,69.35
2022-12-25T05:38:28.198Z,72.25
2022-12-25T05:41:34.148Z,76.38
2022-12-25T05:44:36.496Z,75.18
2022-12-25T05:47:38.271Z,60.67
2022-12-25T05:50:39.836Z,63.05
2022-12-25T05:53:42.675Z,57.10
2022-12-25T05:56:44.158Z,65.90
2022-12-25T05:59:45.732Z,55.17
2022-12-25T06:02:47.287Z,57.33
2022-12-25T06:05:48.890Z,47.20
2022-12-25T06:08:53.896Z,41.22
2022-12-25T06:11:55.459Z,45.85
2022-12-25T06:14:57.037Z,43.15
2022-12-25T06:18:01.823Z,51.25
2022-12-25T06:21:08.362Z,42.63
2022-12-25T06:24:10.424Z,47.28
2022-12-25T06:27:15.454Z,52.92
2022-12-25T06:30:17.072Z,46.97
2022-12-25T06:33:18.506Z,46.45
2022-12-25T06:36:23.414Z,43.15
2022-12-25T06:39:24.902Z,39.85
2022-12-25T06:42:26.419Z,36.10
2022-12-25T06:45:27.983Z,40.63
2022-12-25T06:48:29.535Z,44.45
2022-12-25T06:51:32.630Z,49.53
2022-12-25T06:54:34.165Z,44.13
2022-12-25T06:57:35.584Z,50.15
2022-12-25T07:00:37.063Z,42.83
2022-12-25T07:03:38.559Z,46.97
2022-12-25T07:06:40.129Z,47.95
2022-12-25T07:09:41.648Z,39.22
2022-12-25T07:12:43.150Z,37.80
2022-12-25T07:15:44.944Z,40.72
2022-12-25T07:18:46.504Z,36.10
2022-12-25T07:21:47.984Z,41.20
2022-12-25T07:24:49.421Z,40.17
2022-12-25T07:27:50.915Z,36.15
2022-12-25T07:30:53.164Z,33.30
2022-12-25T07:33:54.819Z,37.33
2022-12-25T07:36:56.370Z,35.10
2022-12-25T07:39:57.815Z,38.03
2022-12-25T07:42:59.299Z,49.42
2022-12-25T07:46:01.029Z,38.45
2022-12-25T07:49:02.659Z,41.30
2022-12-25T07:52:04.458Z,38.17
2022-12-25T07:55:06.467Z,36.65
2022-12-25T07:58:07.946Z,39.00
2022-12-25T08:01:21.051Z,36.92
2022-12-25T08:04:22.745Z,40.35
2022-12-25T08:07:24.455Z,38.55
2022-12-25T08:10:26.115Z,33.00
2022-12-25T08:13:31.234Z,40.70
2022-12-25T08:16:32.882Z,38.58
2022-12-25T08:19:34.447Z,35.85
2022-12-25T08:22:36.007Z,32.85
2022-12-25T08:25:37.505Z,37.63
2022-12-25T08:28:39.398Z,31.63
2022-12-25T08:31:46.494Z,33.67
2022-12-25T08:34:48.162Z,31.00
2022-12-25T08:37:49.608Z,30.83
2022-12-25T08:40:51.162Z,30.90
2022-12-25T08:43:53.297Z,26.75
2022-12-25T08:46:54.960Z,23.23
2022-12-25T08:49:56.433Z,23.70
2022-12-25T08:52:58.040Z,23.95
2022-12-25T08:56:01.671Z,22.30
2022-12-25T08:59:03.192Z,25.50
2022-12-25T09:02:05.033Z,24.35
2022-12-25T09:05:07.333Z,22.50
2022-12-25T09:08:08.900Z,25.70
2022-12-25T09:11:13.085Z,18.67
2022-12-25T09:14:16.841Z,24.45
2022-12-25T09:17:19.584Z,19.13
2022-12-25T09:20:21.259Z,20.75
2022-12-25T09:23:22.805Z,21.17
2022-12-25T09:26:24.294Z,19.85
2022-12-25T09:29:25.775Z,17.10
2022-12-25T09:32:27.304Z,21.30
2022-12-25T09:35:28.854Z,26.55
2022-12-25T09:38:31.343Z,20.35
2022-12-25T09:41:48.795Z,19.77
2022-12-25T09:44:57.107Z,26.52
2022-12-25T09:47:58.927Z,20.10
2022-12-25T09:51:09.796Z,21.95
2022-12-25T09:54:21.379Z,24.75
2022-12-25T09:57:25.517Z,27.40
2022-12-25T10:03:49.440Z,22.10
2022-12-25T10:07:03.800Z,21.55
2022-12-25T10:10:33.160Z,19.40
2022-12-25T10:13:52.313Z,23.42
2022-12-25T10:16:59.847Z,27.10
2022-12-25T10:20:29.854Z,24.83
2022-12-25T10:23:39.231Z,22.77
2022-12-25T10:26:40.939Z,26.58
2022-12-25T10:29:44.716Z,20.27
2022-12-25T10:32:47.535Z,21.52
2022-12-25T10:35:49.385Z,24.95
2022-12-25T10:38:54.305Z,24.83
2022-12-25T10:42:01.896Z,20.58
2022-12-25T10:45:06.556Z,22.48
2022-12-25T10:48:08.232Z,26.38
2022-12-25T10:51:10.057Z,18.60
2022-12-25T10:54:31.126Z,23.00
2022-12-25T10:57:45.064Z,29.50
2022-12-25T11:00:53.313Z,26.00
2022-12-25T11:03:54.815Z,24.38
2022-12-25T11:07:06.639Z,29.52
2022-12-25T11:10:34.666Z,20.95
2022-12-25T11:13:48.090Z,25.52
2022-12-25T11:16:49.772Z,22.35
2022-12-25T11:19:57.001Z,21.20
2022-12-25T11:22:58.514Z,26.60
2022-12-25T11:29:36.554Z,23.83
2022-12-25T11:32:43.358Z,22.42
2022-12-25T11:35:52.291Z,22.00
2022-12-25T11:38:53.873Z,21.55
2022-12-25T11:42:18.461Z,21.95
2022-12-25T11:45:25.034Z,22.20
2022-12-25T11:48:44.905Z,26.02
2022-12-25T11:51:51.685Z,23.00
2022-12-25T11:55:14.743Z,27.63
2022-12-25T11:58:22.363Z,27.05
2022-12-25T12:01:43.708Z,25.13
2022-12-25T12:04:49.713Z,27.02
2022-12-25T12:08:00.871Z,29.05
2022-12-25T12:11:14.364Z,24.58
2022-12-25T12:14:34.437Z,25.85
2022-12-25T12:17:35.995Z,23.50
2022-12-25T12:20:37.589Z,24.42
2022-12-25T12:24:02.386Z,23.25
2022-12-25T12:27:27.567Z,24.35
2022-12-25T12:30:35.500Z,25.02
2022-12-25T12:34:00.584Z,26.35
2022-12-25T12:37:12.763Z,23.33
2022-12-25T12:40:29.020Z,30.42
2022-12-25T12:43:40.827Z,27.88
2022-12-25T12:46:57.432Z,25.88
2022-12-25T12:50:01.030Z,23.35
2022-12-25T12:53:28.735Z,22.85
2022-12-25T12:56:30.296Z,24.48
2022-12-25T12:59:43.421Z,23.10
2022-12-25T13:03:20.555Z,26.40
2022-12-25T13:06:46.124Z,27.80
2022-12-25T13:09:56.831Z,33.00
2022-12-25T13:13:01.915Z,28.95
2022-12-25T13:16:04.087Z,26.25
2022-12-25T13:19:08.359Z,30.33
2022-12-25T13:25:24.011Z,31.92
2022-12-25T13:28:27.522Z,31.77
2022-12-25T13:31:30.814Z,37.75
2022-12-25T13:34:38.350Z,30.80
2022-12-25T13:37:41.299Z,38.25
2022-12-25T13:40:54.985Z,33.13
2022-12-25T13:43:59.800Z,35.20
2022-12-25T13:47:19.318Z,36.67
2022-12-25T13:50:30.199Z,38.85
2022-12-25T13:53:31.697Z,38.08
2022-12-25T13:56:34.620Z,44.75
2022-12-25T13:59:37.942Z,42.60
2022-12-25T14:02:39.586Z,42.93
2022-12-25T14:05:43.321Z,41.30
2022-12-25T14:08:46.315Z,47.53
2022-12-25T14:11:52.482Z,43.95
2022-12-25T14:14:54.879Z,42.95
2022-12-25T14:17:56.498Z,34.55
2022-12-25T14:21:02.184Z,43.67
2022-12-25T14:24:04.163Z,37.97
2022-12-25T14:27:15.134Z,38.05
2022-12-25T14:30:16.947Z,35.10
2022-12-25T14:33:22.519Z,33.78
2022-12-25T14:36:27.461Z,37.47
2022-12-25T14:39:40.530Z,41.67
2022-12-25T14:42:42.150Z,37.72
2022-12-25T14:45:53.490Z,32.30
2022-12-25T14:49:00.335Z,47.38
2022-12-25T14:52:43.166Z,50.83
2022-12-25T14:55:50.657Z,49.03
2022-12-25T14:58:55.670Z,46.88
2022-12-25T15:02:00.377Z,43.15
2022-12-25T15:05:05.104Z,49.50
2022-12-25T15:08:09.297Z,46.67
2022-12-25T15:14:12.305Z,52.92
2022-12-25T15:17:35.161Z,48.50
2022-12-25T15:20:36.723Z,53.03
2022-12-25T15:23:38.332Z,63.55
2022-12-25T15:26:40.167Z,46.50
2022-12-25T15:33:04.672Z,48.30
2022-12-25T15:36:06.415Z,53.35
2022-12-25T15:39:08.187Z,49.50
2022-12-25T15:42:19.583Z,53.10
2022-12-25T15:45:23.977Z,56.35
2022-12-25T15:48:25.726Z,69.43
2022-12-25T15:51:29.658Z,62.75
2022-12-25T15:54:32.450Z,55.85
2022-12-25T15:57:34.804Z,51.08
2022-12-25T16:00:36.489Z,68.57
2022-12-25T16:03:43.077Z,58.80
2022-12-25T16:06:44.998Z,49.28
2022-12-25T16:09:46.617Z,67.07
2022-12-25T16:12:48.131Z,73.10
2022-12-25T16:15:51.687Z,59.53
2022-12-25T16:18:53.326Z,73.07
2022-12-25T16:21:54.865Z,58.70
2022-12-25T16:24:56.947Z,61.25
2022-12-25T16:27:58.477Z,58.80
2022-12-25T16:31:00.008Z,53.78
2022-12-25T16:34:01.699Z,64.05
2022-12-25T16:37:03.535Z,76.97
2022-12-25T16:40:06.464Z,65.82
2022-12-25T16:43:08.041Z,68.78
2022-12-25T16:46:12.856Z,67.60
2022-12-25T16:49:14.805Z,114.95
2022-12-25T16:52:16.399Z,107.82
2022-12-25T16:55:18.337Z,100.32
2022-12-25T16:58:21.034Z,96.28
2022-12-25T17:01:23.477Z,103.30
2022-12-25T17:04:27.043Z,131.35
2022-12-25T17:07:28.607Z,119.23
2022-12-25T17:10:30.129Z,191.00
2022-12-25T17:13:31.754Z,92.78
2022-12-25T17:16:36.019Z,98.57
2022-12-25T17:19:37.643Z,95.88
2022-12-25T17:22:39.147Z,87.50
2022-12-25T17:25:40.957Z,126.43
2022-12-25T17:28:42.525Z,66.75
2022-12-25T17:31:44.129Z,141.93
2022-12-25T17:34:45.811Z,59.85
2022-12-25T17:37:47.398Z,338.70
2022-12-25T17:40:56.110Z,268.27
2022-12-25T17:44:00.311Z,241.63
2022-12-25T17:47:01.995Z,106.25
2022-12-25T17:50:03.705Z,66.22
2022-12-25T17:53:05.302Z,221.82
2022-12-25T17:56:07.833Z,82.07
2022-12-25T17:59:13.340Z,125.80
2022-12-25T18:02:14.973Z,99.47
2022-12-25T18:05:16.573Z,168.32
2022-12-25T18:08:18.035Z,250.48
2022-12-25T18:11:23.410Z,63.85
2022-12-25T18:14:25.049Z,150.98
2022-12-25T18:17:26.565Z,94.95
2022-12-25T18:20:30.139Z,84.60
2022-12-25T18:23:34.136Z,89.07
2022-12-25T18:26:36.321Z,180.63
2022-12-25T18:29:38.085Z,114.75
2022-12-25T18:32:39.640Z,112.20
2022-12-25T18:35:42.919Z,189.00
2022-12-25T18:38:44.567Z,180.30
2022-12-25T18:41:46.149Z,166.02
2022-12-25T18:44:47.695Z,203.52
2022-12-25T18:47:49.368Z,125.95
2022-12-25T18:50:56.157Z,107.45
2022-12-25T18:53:57.625Z,278.23
2022-12-25T18:57:03.739Z,123.40
2022-12-25T19:00:11.789Z,179.95
2022-12-25T19:03:13.387Z,134.82
2022-12-25T19:06:20.225Z,205.43
2022-12-25T19:09:21.751Z,145.07
2022-12-25T19:12:23.733Z,198.18
2022-12-25T19:15:25.206Z,191.95
2022-12-25T19:18:27.973Z,207.02
2022-12-25T19:21:29.537Z,247.48
2022-12-25T19:24:31.354Z,259.02
2022-12-25T19:30:38.294Z,251.52
2022-12-25T19:33:41.256Z,159.68
2022-12-25T19:36:44.961Z,153.57
2022-12-25T19:39:46.547Z,136.30
2022-12-25T19:42:48.333Z,261.77
2022-12-25T19:45:49.929Z,180.93
2022-12-25T19:48:51.916Z,152.75
2022-12-25T19:51:53.349Z,141.80
2022-12-25T19:54:57.930Z,150.40
2022-12-25T19:57:59.367Z,137.45
2022-12-25T20:01:06.289Z,125.72
2022-12-25T20:04:08.811Z,141.30
2022-12-25T20:07:10.357Z,109.03
2022-12-25T20:10:12.202Z,83.68
2022-12-25T20:13:16.215Z,79.22
2022-12-25T20:16:17.803Z,91.25
2022-12-25T20:19:19.371Z,94.45
2022-12-25T20:22:20.941Z,109.93
2022-12-25T20:25:22.588Z,118.63
2022-12-25T20:28:24.042Z,118.15
2022-12-25T20:31:28.904Z,144.27
2022-12-25T20:34:30.431Z,127.60
2022-12-25T20:37:32.003Z,147.57
2022-12-25T20:40:52.981Z,154.52
2022-12-25T20:43:55.121Z,127.07
2022-12-25T20:46:57.051Z,143.18
2022-12-25T20:49:58.572Z,151.48
2022-12-25T20:53:00.094Z,151.10
2022-12-25T20:56:01.858Z,141.98
2022-12-25T20:59:03.487Z,159.23
2022-12-25T21:02:05.210Z,147.05
2022-12-25T21:05:07.405Z,151.68
2022-12-25T21:08:08.897Z,162.65
2022-12-25T21:11:10.916Z,156.45
2022-12-25T21:14:12.390Z,156.20
2022-12-25T21:17:13.829Z,151.77
2022-12-25T21:20:15.443Z,149.27
2022-12-25T21:23:17.587Z,152.27
2022-12-25T21:26:25.007Z,145.90
2022-12-25T21:29:26.543Z,152.70
2022-12-25T21:32:28.021Z,148.80
2022-12-25T21:35:29.642Z,144.45
2022-12-25T21:38:31.233Z,143.50
2022-12-25T21:41:37.720Z,149.57
2022-12-25T21:44:39.254Z,154.57
2022-12-25T21:48:01.866Z,131.68
2022-12-25T21:51:07.095Z,142.00
2022-12-25T21:54:09.723Z,157.57
2022-12-25T21:57:14.417Z,141.18
2022-12-25T22:00:16.128Z,131.63
2022-12-25T22:03:17.716Z,116.80
2022-12-25T22:06:21.603Z,120.32
2022-12-25T22:12:30.191Z,120.88
2022-12-25T22:15:33.570Z,98.63
2022-12-25T22:18:35.077Z,100.82
2022-12-25T22:21:36.640Z,112.72
2022-12-25T22:24:38.728Z,105.70
2022-12-25T22:27:42.040Z,94.32
2022-12-25T22:30:43.559Z,93.47
2022-12-25T22:33:47.782Z,92.85
2022-12-25T22:39:50.906Z,93.13
2022-12-25T22:42:56.403Z,96.35
2022-12-25T22:46:01.757Z,97.63
2022-12-25T22:49:03.237Z,94.40
2022-12-25T22:52:05.053Z,91.80
2022-12-25T22:55:09.102Z,96.90
2022-12-25T22:58:13.254Z,89.35
2022-12-25T23:01:15.648Z,88.75
2022-12-25T23:04:17.654Z,94.25
2022-12-25T23:07:20.096Z,83.50
2022-12-25T23:10:21.665Z,77.60
2022-12-25T23:13:23.177Z,79.30
2022-12-25T23:16:24.790Z,86.97
2022-12-25T23:19:26.656Z,82.45
2022-12-25T23:22:28.191Z,87.13
2022-12-25T23:25:32.807Z,83.47
2022-12-25T23:28:39.054Z,92.32
2022-12-25T23:31:41.935Z,88.43
2022-12-25T23:34:46.662Z,89.25
2022-12-25T23:40:49.639Z,94.07
2022-12-25T23:43:51.167Z,95.72
2022-12-25T23:46:53.633Z,82.13
2022-12-25T23:49:55.330Z,85.50
2022-12-25T23:52:56.871Z,86.70
2022-12-25T23:55:59.214Z,88.53
2022-12-25T23:59:00.785Z,82.18
